GCLP/LPA METAR and TAF weather

Enter ICAO airport designator
Station Type Date Time Source
GCLP METAR 2018/12/12 05:00 UTC NOAA

GCLP 120500Z 01015KT 9999 FEW025 SCT030 19/13 Q1023 NOSIG


Station Type Date Time Source
GCLP Decoded METAR 2018/12/12 05:00 UTC NOAA

Gran Canaria - Canary Islands, Spain (GCLP) 27-56N 015-23W 47M
Dec 12, 2018 - 12:00 AM EST / 2018.12.12 0500 UTC
Wind: from the N (010 degrees) at 17 MPH (15 KT):0
Visibility: greater than 7 mile(s):0
Sky conditions: partly cloudy
Temperature: 66 F (19 C)
Dew Point: 55 F (13 C)
Relative Humidity: 68%
Pressure (altimeter): 30.21 in. Hg (1023 hPa)
ob: GCLP 120500Z 01015KT 9999 FEW025 SCT030 19/13 Q1023 NOSIG
cycle: 5

Station Type Date Time Source
GCLP TAF 2018/12/12 03:37 UTC NOAA

TAF GCLP 120200Z 1203/1303 36016KT 9999 SCT035 TX23/1214Z TN17/1206Z


Example: see airport list